createdAt,value
2023-04-09T00:02:22.491Z,9.00
2023-04-09T00:04:49.987Z,9.43
2023-04-09T00:07:17.362Z,8.90
2023-04-09T00:09:44.708Z,9.90
2023-04-09T00:12:14.283Z,9.53
2023-04-09T00:14:41.974Z,10.70
2023-04-09T00:17:09.322Z,9.47
2023-04-09T00:19:37.031Z,10.70
2023-04-09T00:22:04.330Z,11.47
2023-04-09T00:24:31.669Z,10.83
2023-04-09T00:26:59.053Z,10.13
2023-04-09T00:29:27.999Z,10.17
2023-04-09T00:31:56.119Z,10.97
2023-04-09T00:34:23.907Z,10.37
2023-04-09T00:36:51.326Z,10.23
2023-04-09T00:39:18.778Z,10.23
2023-04-09T00:41:46.362Z,10.37
2023-04-09T00:44:13.739Z,10.50
2023-04-09T00:46:42.744Z,11.17
2023-04-09T00:49:10.382Z,9.67
2023-04-09T00:51:38.767Z,11.20
2023-04-09T00:54:06.473Z,10.77
2023-04-09T00:56:34.145Z,10.47
2023-04-09T00:59:01.499Z,10.23
2023-04-09T01:01:29.062Z,10.03
2023-04-09T01:03:58.061Z,11.10
2023-04-09T01:06:29.352Z,10.17
2023-04-09T01:09:01.036Z,10.43
2023-04-09T01:11:32.885Z,10.50
2023-04-09T01:14:06.042Z,10.13
2023-04-09T01:16:37.637Z,9.43
2023-04-09T01:19:11.306Z,9.77
2023-04-09T01:21:40.258Z,9.17
2023-04-09T01:24:15.923Z,9.73
2023-04-09T01:26:54.585Z,11.03
2023-04-09T01:29:27.332Z,9.10
2023-04-09T01:31:55.399Z,9.33
2023-04-09T01:34:23.509Z,10.23
2023-04-09T01:36:52.978Z,9.93
2023-04-09T01:39:20.720Z,10.80
2023-04-09T01:41:49.032Z,10.47
2023-04-09T01:44:16.790Z,10.03
2023-04-09T01:46:47.014Z,9.93
2023-04-09T01:49:15.398Z,10.63
2023-04-09T01:51:42.980Z,10.93
2023-04-09T01:54:10.715Z,10.63
2023-04-09T01:56:41.585Z,11.57
2023-04-09T01:59:09.348Z,10.83
2023-04-09T02:01:38.998Z,11.30
2023-04-09T02:04:12.151Z,11.87
2023-04-09T02:06:41.384Z,10.87
2023-04-09T02:09:09.439Z,10.30
2023-04-09T02:11:38.374Z,9.63
2023-04-09T02:14:05.833Z,10.63
2023-04-09T02:16:33.450Z,10.63
2023-04-09T02:19:01.403Z,10.20
2023-04-09T02:21:31.663Z,11.07
2023-04-09T02:23:59.130Z,10.63
2023-04-09T02:26:27.160Z,11.20
2023-04-09T02:28:54.763Z,11.20
2023-04-09T02:31:22.454Z,11.00
2023-04-09T02:33:49.802Z,9.97
2023-04-09T02:36:17.162Z,10.23
2023-04-09T02:38:46.156Z,10.37
2023-04-09T02:41:13.751Z,10.90
2023-04-09T02:43:41.225Z,10.10
2023-04-09T02:46:08.975Z,10.50
2023-04-09T02:48:37.829Z,10.40
2023-04-09T02:51:05.828Z,9.33
2023-04-09T02:53:33.182Z,9.47
2023-04-09T02:56:01.868Z,8.87
2023-04-09T02:58:29.465Z,10.47
2023-04-09T03:00:56.969Z,9.57
2023-04-09T03:03:24.777Z,10.30
2023-04-09T03:05:52.299Z,10.20
2023-04-09T03:08:19.664Z,10.37
2023-04-09T03:10:47.278Z,10.43
2023-04-09T03:13:15.998Z,9.43
2023-04-09T03:15:43.495Z,9.60
2023-04-09T03:18:11.124Z,9.63
2023-04-09T03:20:38.878Z,8.93
2023-04-09T03:23:08.601Z,10.07
2023-04-09T03:25:41.128Z,10.30
2023-04-09T03:28:18.909Z,9.40
2023-04-09T03:30:53.383Z,9.43
2023-04-09T03:33:20.868Z,9.40
2023-04-09T03:35:52.443Z,9.27
2023-04-09T03:38:29.504Z,10.20
2023-04-09T03:40:57.479Z,10.77
2023-04-09T03:43:26.350Z,10.00
2023-04-09T03:45:54.583Z,10.20
2023-04-09T03:48:27.211Z,10.80
2023-04-09T03:50:56.497Z,10.43
2023-04-09T03:53:35.019Z,10.67
2023-04-09T03:56:06.443Z,11.03
2023-04-09T03:58:36.499Z,10.33
2023-04-09T04:01:04.319Z,10.20
2023-04-09T04:03:39.949Z,10.10
2023-04-09T04:06:28.387Z,9.80
2023-04-09T04:09:34.167Z,9.80
2023-04-09T04:12:06.649Z,9.90
2023-04-09T04:14:47.834Z,11.07
2023-04-09T04:17:25.154Z,17.10
2023-04-09T04:19:53.660Z,15.70
2023-04-09T04:22:24.264Z,15.17
2023-04-09T04:24:55.526Z,11.63
2023-04-09T04:27:23.812Z,9.60
2023-04-09T04:29:53.094Z,9.80
2023-04-09T04:32:30.497Z,9.70
2023-04-09T04:34:59.080Z,10.60
2023-04-09T04:37:27.628Z,10.83
2023-04-09T04:39:58.787Z,11.03
2023-04-09T04:42:26.496Z,12.40
2023-04-09T04:44:55.649Z,10.83
2023-04-09T04:47:36.304Z,9.83
2023-04-09T04:50:05.623Z,10.47
2023-04-09T04:52:41.005Z,10.60
2023-04-09T04:55:09.992Z,11.03
2023-04-09T04:57:37.609Z,10.63
2023-04-09T05:00:07.598Z,10.57
2023-04-09T05:02:36.038Z,10.37
2023-04-09T05:05:18.807Z,10.70
2023-04-09T05:07:51.971Z,10.50
2023-04-09T05:10:19.501Z,10.77
2023-04-09T05:12:47.624Z,10.40
2023-04-09T05:15:23.791Z,10.40
2023-04-09T05:17:51.501Z,10.47
2023-04-09T05:20:19.819Z,10.50
2023-04-09T05:22:54.484Z,11.57
2023-04-09T05:25:28.800Z,11.03
2023-04-09T05:27:57.106Z,15.07
2023-04-09T05:30:27.356Z,21.00
2023-04-09T05:32:56.404Z,20.17
2023-04-09T05:35:27.857Z,27.50
2023-04-09T05:37:55.698Z,17.97
2023-04-09T05:40:23.235Z,14.33
2023-04-09T05:42:51.789Z,12.27
2023-04-09T05:45:29.503Z,15.80
2023-04-09T05:47:57.131Z,17.13
2023-04-09T05:50:24.687Z,16.63
2023-04-09T05:52:54.744Z,18.17
2023-04-09T05:55:28.581Z,17.30
2023-04-09T05:58:01.305Z,16.70
2023-04-09T06:00:30.868Z,18.30
2023-04-09T06:02:58.484Z,16.87
2023-04-09T06:05:28.217Z,16.90
2023-04-09T06:07:56.393Z,18.03
2023-04-09T06:10:24.090Z,28.27
2023-04-09T06:12:51.952Z,30.73
2023-04-09T06:15:19.952Z,20.50
2023-04-09T06:17:48.642Z,14.20
2023-04-09T06:20:16.450Z,12.20
2023-04-09T06:22:44.056Z,12.17
2023-04-09T06:25:11.651Z,13.00
2023-04-09T06:27:39.035Z,12.73
2023-04-09T06:30:08.179Z,13.47
2023-04-09T06:32:43.681Z,12.93
2023-04-09T06:35:20.659Z,15.33
2023-04-09T06:37:47.994Z,14.20
2023-04-09T06:40:15.947Z,15.37
2023-04-09T06:42:43.326Z,15.67
2023-04-09T06:45:21.456Z,15.97
2023-04-09T06:47:49.779Z,16.43
2023-04-09T06:50:17.292Z,15.30
2023-04-09T06:52:46.221Z,16.63
2023-04-09T06:55:14.139Z,15.57
2023-04-09T06:57:41.516Z,16.20
2023-04-09T07:00:09.614Z,15.50
2023-04-09T07:02:37.579Z,15.03
2023-04-09T07:05:05.679Z,16.40
2023-04-09T07:07:33.064Z,15.00
2023-04-09T07:10:02.389Z,14.10
2023-04-09T07:12:29.956Z,13.87
2023-04-09T07:14:58.827Z,15.10
2023-04-09T07:17:26.320Z,13.87
2023-04-09T07:19:54.275Z,14.83
2023-04-09T07:22:22.180Z,14.73
2023-04-09T07:24:53.550Z,15.10
2023-04-09T07:27:23.177Z,13.70
2023-04-09T07:29:50.637Z,14.37
2023-04-09T07:32:18.348Z,14.07
2023-04-09T07:34:45.913Z,14.40
2023-04-09T07:37:13.465Z,12.60
2023-04-09T07:39:42.638Z,13.50
2023-04-09T07:42:10.040Z,13.60
2023-04-09T07:44:38.808Z,13.80
2023-04-09T07:47:07.461Z,13.37
2023-04-09T07:49:36.273Z,12.97
2023-04-09T07:52:03.910Z,14.17
2023-04-09T07:54:31.679Z,12.83
2023-04-09T07:56:59.271Z,14.63
2023-04-09T07:59:27.576Z,14.57
2023-04-09T08:01:56.922Z,13.97
2023-04-09T08:04:24.690Z,14.33
2023-04-09T08:06:53.786Z,13.37
2023-04-09T08:09:21.705Z,14.23
2023-04-09T08:11:49.282Z,13.90
2023-04-09T08:14:17.778Z,13.33
2023-04-09T08:16:46.141Z,13.87
2023-04-09T08:19:16.264Z,13.97
2023-04-09T08:21:44.785Z,13.67
2023-04-09T08:24:12.745Z,12.97
2023-04-09T08:26:40.513Z,13.20
2023-04-09T08:29:08.544Z,12.60
2023-04-09T08:31:36.555Z,13.63
2023-04-09T08:34:04.098Z,14.20
2023-04-09T08:36:34.894Z,13.83
2023-04-09T08:39:02.571Z,13.37
2023-04-09T08:41:30.496Z,13.47
2023-04-09T08:43:59.478Z,13.00
2023-04-09T08:46:27.774Z,12.60
2023-04-09T08:48:55.826Z,13.63
2023-04-09T08:51:24.341Z,13.80
2023-04-09T08:53:54.039Z,12.97
2023-04-09T08:56:22.354Z,13.37
2023-04-09T08:58:50.269Z,14.40
2023-04-09T09:01:22.000Z,14.93
2023-04-09T09:03:57.262Z,13.80
2023-04-09T09:06:26.093Z,15.03
2023-04-09T09:09:05.004Z,13.17
2023-04-09T09:11:33.070Z,14.10
2023-04-09T09:14:01.821Z,13.77
2023-04-09T09:16:29.414Z,14.93
2023-04-09T09:18:57.750Z,14.20
2023-04-09T09:21:26.239Z,13.57
2023-04-09T09:23:53.773Z,14.70
2023-04-09T09:26:24.710Z,13.67
2023-04-09T09:28:53.075Z,12.17
2023-04-09T09:31:21.603Z,13.47
2023-04-09T09:33:50.566Z,13.53
2023-04-09T09:36:31.629Z,14.30
2023-04-09T09:39:02.091Z,13.53
2023-04-09T09:41:31.791Z,14.20
2023-04-09T09:44:00.456Z,13.87
2023-04-09T09:46:28.371Z,14.77
2023-04-09T09:48:55.954Z,14.57
2023-04-09T09:51:26.413Z,13.20
2023-04-09T09:53:55.631Z,13.57
2023-04-09T09:56:24.721Z,14.37
2023-04-09T09:58:57.753Z,14.17
2023-04-09T10:01:27.480Z,13.17
2023-04-09T10:03:57.476Z,13.53
2023-04-09T10:06:26.370Z,13.33
2023-04-09T10:08:56.591Z,13.23
2023-04-09T10:11:24.332Z,11.77
2023-04-09T10:13:54.717Z,12.27
2023-04-09T10:16:24.238Z,11.33
2023-04-09T10:18:52.241Z,12.13
2023-04-09T10:21:25.450Z,11.83
2023-04-09T10:23:53.614Z,10.77
2023-04-09T10:26:22.082Z,10.70
2023-04-09T10:29:03.713Z,11.73
2023-04-09T10:31:46.432Z,11.33
2023-04-09T10:34:16.366Z,10.50
2023-04-09T10:36:44.589Z,11.60
2023-04-09T10:39:13.581Z,11.17
2023-04-09T10:41:41.529Z,11.20
2023-04-09T10:44:20.675Z,10.40
2023-04-09T10:46:49.744Z,11.43
2023-04-09T10:49:17.923Z,12.00
2023-04-09T10:51:55.027Z,11.23
2023-04-09T10:54:43.742Z,12.23
2023-04-09T10:57:13.512Z,10.87
2023-04-09T10:59:42.180Z,12.47
2023-04-09T11:02:13.764Z,11.73
2023-04-09T11:04:45.271Z,11.60
2023-04-09T11:07:13.464Z,9.90
2023-04-09T11:09:42.339Z,10.87
2023-04-09T11:12:12.053Z,10.40
2023-04-09T11:14:39.646Z,10.67
2023-04-09T11:17:07.025Z,11.80
2023-04-09T11:19:35.959Z,11.20
2023-04-09T11:22:04.843Z,11.73
2023-04-09T11:24:40.860Z,10.83
2023-04-09T11:27:08.204Z,10.20
2023-04-09T11:29:36.052Z,10.97
2023-04-09T11:32:05.132Z,10.10
2023-04-09T11:34:32.551Z,10.60
2023-04-09T11:37:06.961Z,9.70
2023-04-09T11:39:37.290Z,10.07
2023-04-09T11:42:04.849Z,10.77
2023-04-09T11:44:32.320Z,10.43
2023-04-09T11:46:59.778Z,10.83
2023-04-09T11:49:27.721Z,10.57
2023-04-09T11:51:55.379Z,9.87
2023-04-09T11:54:24.572Z,11.20
2023-04-09T11:56:55.869Z,11.17
2023-04-09T11:59:23.851Z,10.93
2023-04-09T12:01:52.024Z,11.03
2023-04-09T12:04:20.791Z,10.53
2023-04-09T12:06:48.911Z,10.67
2023-04-09T12:09:16.553Z,9.73
2023-04-09T12:11:46.060Z,9.67
2023-04-09T12:14:14.614Z,10.23
2023-04-09T12:16:43.904Z,10.17
2023-04-09T12:19:11.988Z,11.73
2023-04-09T12:21:46.186Z,11.80
2023-04-09T12:24:13.711Z,11.47
2023-04-09T12:26:41.177Z,11.57
2023-04-09T12:29:10.068Z,10.70
2023-04-09T12:31:37.703Z,10.77
2023-04-09T12:34:05.147Z,11.67
2023-04-09T12:36:32.544Z,11.93
2023-04-09T12:38:59.902Z,10.97
2023-04-09T12:41:27.654Z,11.03
2023-04-09T12:43:55.145Z,12.17
2023-04-09T12:46:24.539Z,12.27
2023-04-09T12:48:52.104Z,12.33
2023-04-09T12:51:19.494Z,12.93
2023-04-09T12:53:47.494Z,12.47
2023-04-09T12:56:14.962Z,13.03
2023-04-09T12:58:42.528Z,12.60
2023-04-09T13:01:09.877Z,13.20
2023-04-09T13:03:41.200Z,12.57
2023-04-09T13:06:09.521Z,13.30
2023-04-09T13:08:37.270Z,13.77
2023-04-09T13:11:04.877Z,11.77
2023-04-09T13:13:32.752Z,11.87
2023-04-09T13:16:00.059Z,11.90
2023-04-09T13:18:27.605Z,12.37
2023-04-09T13:20:56.292Z,12.07
2023-04-09T13:23:23.649Z,11.13
2023-04-09T13:25:51.162Z,11.90
2023-04-09T13:28:18.706Z,11.87
2023-04-09T13:30:46.786Z,11.87
2023-04-09T13:33:14.862Z,11.73
2023-04-09T13:35:42.264Z,14.47
2023-04-09T13:38:11.406Z,15.53
2023-04-09T13:40:38.734Z,15.40
2023-04-09T13:43:06.221Z,16.07
2023-04-09T13:45:33.746Z,16.30
2023-04-09T13:48:01.246Z,16.30
2023-04-09T13:50:28.855Z,16.33
2023-04-09T13:52:56.358Z,17.17
2023-04-09T13:55:25.052Z,17.20
2023-04-09T13:57:52.394Z,17.33
2023-04-09T14:00:20.721Z,16.70
2023-04-09T14:02:48.278Z,16.27
2023-04-09T14:05:16.442Z,15.83
2023-04-09T14:07:43.780Z,15.70
2023-04-09T14:10:12.114Z,15.07
2023-04-09T14:12:41.200Z,15.17
2023-04-09T14:15:10.089Z,15.20
2023-04-09T14:17:37.614Z,14.00
2023-04-09T14:20:05.251Z,14.37
2023-04-09T14:22:32.641Z,15.30
2023-04-09T14:25:00.502Z,15.00
2023-04-09T14:27:27.865Z,13.53
2023-04-09T14:29:56.571Z,13.57
2023-04-09T14:32:24.236Z,13.90
2023-04-09T14:34:51.790Z,20.20
2023-04-09T14:37:19.147Z,11.77
2023-04-09T14:39:46.600Z,12.60
2023-04-09T14:42:14.517Z,13.33
2023-04-09T14:44:41.881Z,13.17
2023-04-09T14:47:11.536Z,13.60
2023-04-09T14:49:38.856Z,11.90
2023-04-09T14:52:06.364Z,12.03
2023-04-09T14:54:34.081Z,12.33
2023-04-09T14:57:02.603Z,12.20
2023-04-09T14:59:30.224Z,10.97
2023-04-09T15:01:58.272Z,12.33
2023-04-09T15:04:27.328Z,11.40
2023-04-09T15:06:54.853Z,12.43
2023-04-09T15:09:22.184Z,11.70
2023-04-09T15:11:49.678Z,11.63
2023-04-09T15:14:16.997Z,9.33
2023-04-09T15:16:44.446Z,9.93
2023-04-09T15:19:11.971Z,8.87
2023-04-09T15:21:40.628Z,10.60
2023-04-09T15:24:07.941Z,10.80
2023-04-09T15:26:35.692Z,9.10
2023-04-09T15:29:03.958Z,8.77
2023-04-09T15:31:33.187Z,8.83
2023-04-09T15:34:00.922Z,9.37
2023-04-09T15:36:29.994Z,10.20
2023-04-09T15:38:58.821Z,11.13
2023-04-09T15:41:26.841Z,9.90
2023-04-09T15:43:54.444Z,10.43
2023-04-09T15:46:22.177Z,10.10
2023-04-09T15:48:49.562Z,10.27
2023-04-09T15:51:17.787Z,10.87
2023-04-09T15:53:45.319Z,10.93
2023-04-09T15:56:15.207Z,10.77
2023-04-09T15:58:42.727Z,11.13
2023-04-09T16:01:10.395Z,10.13
2023-04-09T16:03:39.766Z,9.90
2023-04-09T16:06:08.255Z,8.87
2023-04-09T16:08:36.529Z,8.23
2023-04-09T16:11:04.331Z,7.67
2023-04-09T16:13:33.494Z,7.60
2023-04-09T16:16:01.089Z,7.70
2023-04-09T16:18:28.731Z,7.60
2023-04-09T16:20:57.010Z,7.90
2023-04-09T16:23:25.829Z,7.77
2023-04-09T16:25:53.693Z,6.97
2023-04-09T16:28:22.123Z,7.27
2023-04-09T16:30:51.605Z,7.40
2023-04-09T16:33:19.198Z,7.07
2023-04-09T16:35:46.691Z,7.03
2023-04-09T16:38:14.737Z,7.13
2023-04-09T16:40:42.602Z,7.50
2023-04-09T16:43:10.000Z,7.00
2023-04-09T16:45:37.801Z,7.23
2023-04-09T16:48:11.914Z,6.80
2023-04-09T16:50:39.768Z,6.77
2023-04-09T16:53:07.145Z,7.03
2023-04-09T16:55:34.748Z,6.03
2023-04-09T16:58:02.126Z,6.10
2023-04-09T17:00:29.781Z,6.17
2023-04-09T17:02:58.140Z,6.70
2023-04-09T17:05:27.115Z,5.70
2023-04-09T17:07:54.842Z,6.00
2023-04-09T17:10:22.419Z,6.53
2023-04-09T17:12:50.593Z,6.07
2023-04-09T17:15:18.143Z,5.97
2023-04-09T17:17:45.798Z,6.40
2023-04-09T17:20:13.779Z,5.97
2023-04-09T17:22:42.695Z,6.07
2023-04-09T17:25:10.546Z,5.83
2023-04-09T17:27:37.876Z,5.80
2023-04-09T17:30:06.248Z,5.73
2023-04-09T17:32:34.026Z,6.43
2023-04-09T17:35:03.485Z,6.40
2023-04-09T17:37:31.194Z,6.27
2023-04-09T17:40:00.722Z,6.43
2023-04-09T17:42:29.173Z,6.83
2023-04-09T17:44:56.880Z,7.00
2023-04-09T17:47:24.477Z,8.10
2023-04-09T17:49:52.268Z,7.43
2023-04-09T17:52:20.580Z,7.43
2023-04-09T17:54:50.497Z,8.00
2023-04-09T17:57:19.575Z,7.80
2023-04-09T17:59:46.910Z,8.23
2023-04-09T18:02:14.716Z,8.93
2023-04-09T18:04:42.292Z,8.83
2023-04-09T18:07:10.044Z,8.83
2023-04-09T18:09:39.076Z,8.30
2023-04-09T18:12:06.782Z,8.80
2023-04-09T18:14:35.537Z,8.07
2023-04-09T18:17:02.843Z,8.50
2023-04-09T18:19:30.545Z,8.40
2023-04-09T18:21:58.174Z,9.20
2023-04-09T18:24:29.380Z,8.13
2023-04-09T18:26:57.576Z,8.80
2023-04-09T18:29:26.710Z,9.10
2023-04-09T18:31:56.703Z,9.13
2023-04-09T18:34:24.850Z,10.43
2023-04-09T18:36:53.257Z,9.03
2023-04-09T18:39:21.033Z,9.87
2023-04-09T18:41:48.533Z,8.10
2023-04-09T18:44:15.921Z,9.30
2023-04-09T18:46:43.337Z,8.20
2023-04-09T18:49:12.061Z,9.00
2023-04-09T18:51:39.386Z,8.90
2023-04-09T18:54:06.931Z,9.40
2023-04-09T18:56:34.710Z,8.70
2023-04-09T18:59:02.262Z,8.43
2023-04-09T19:01:29.616Z,8.67
2023-04-09T19:03:57.298Z,9.47
2023-04-09T19:06:27.791Z,10.80
2023-04-09T19:08:58.195Z,10.60
2023-04-09T19:11:25.946Z,10.20
2023-04-09T19:13:53.651Z,10.30
2023-04-09T19:16:21.425Z,10.17
2023-04-09T19:18:48.981Z,10.53
2023-04-09T19:21:17.842Z,10.67
2023-04-09T19:23:46.903Z,10.87
2023-04-09T19:26:14.344Z,12.23
2023-04-09T19:28:41.833Z,11.83
2023-04-09T19:31:09.217Z,11.10
2023-04-09T19:33:36.627Z,11.13
2023-04-09T19:36:04.256Z,10.87
2023-04-09T19:38:31.790Z,10.77
2023-04-09T19:41:00.705Z,10.47
2023-04-09T19:43:28.143Z,10.73
2023-04-09T19:45:56.947Z,10.13
2023-04-09T19:48:24.298Z,9.00
2023-04-09T19:50:52.557Z,9.13
2023-04-09T19:53:19.905Z,9.00
2023-04-09T19:55:47.244Z,8.53
2023-04-09T19:58:16.469Z,9.73
2023-04-09T20:00:43.934Z,9.07
2023-04-09T20:03:11.697Z,10.80
2023-04-09T20:05:39.389Z,10.03
2023-04-09T20:08:12.282Z,10.17
2023-04-09T20:10:44.797Z,9.80
2023-04-09T20:13:12.508Z,9.67
2023-04-09T20:15:41.545Z,9.27
2023-04-09T20:18:09.107Z,9.80
2023-04-09T20:20:36.626Z,10.47
2023-04-09T20:23:04.832Z,9.20
2023-04-09T20:25:34.890Z,9.40
2023-04-09T20:28:03.522Z,9.43
2023-04-09T20:30:31.331Z,10.20
2023-04-09T20:33:00.060Z,9.67
2023-04-09T20:35:27.771Z,9.27
2023-04-09T20:37:55.499Z,9.37
2023-04-09T20:40:22.959Z,10.03
2023-04-09T20:42:50.747Z,10.43
2023-04-09T20:45:18.152Z,10.10
2023-04-09T20:47:46.009Z,9.43
2023-04-09T20:50:15.238Z,9.37
2023-04-09T20:52:43.216Z,10.03
2023-04-09T20:55:10.604Z,10.10
2023-04-09T20:57:37.939Z,10.13
2023-04-09T21:00:06.699Z,10.23
2023-04-09T21:02:34.749Z,10.43
2023-04-09T21:05:11.610Z,9.97
2023-04-09T21:07:48.087Z,9.87
2023-04-09T21:10:15.609Z,10.87
2023-04-09T21:12:43.030Z,10.50
2023-04-09T21:15:11.071Z,10.27
2023-04-09T21:17:38.507Z,10.93
2023-04-09T21:20:06.532Z,10.30
2023-04-09T21:22:34.685Z,10.57
2023-04-09T21:25:04.086Z,10.93
2023-04-09T21:27:31.815Z,11.03
2023-04-09T21:29:59.140Z,10.77
2023-04-09T21:32:26.708Z,11.03
2023-04-09T21:34:54.404Z,11.47
2023-04-09T21:37:21.903Z,11.50
2023-04-09T21:39:50.091Z,11.20
2023-04-09T21:42:18.814Z,10.97
2023-04-09T21:44:46.221Z,11.27
2023-04-09T21:47:13.656Z,11.17
2023-04-09T21:49:41.352Z,11.40
2023-04-09T21:52:14.190Z,12.97
2023-04-09T21:54:42.075Z,11.77
2023-04-09T21:57:09.731Z,12.20
2023-04-09T21:59:41.318Z,11.10
2023-04-09T22:02:09.691Z,11.73
2023-04-09T22:04:37.882Z,11.67
2023-04-09T22:07:05.623Z,11.10
2023-04-09T22:09:33.007Z,12.20
2023-04-09T22:12:00.514Z,11.00
2023-04-09T22:14:29.451Z,10.40
2023-04-09T22:17:01.006Z,10.40
2023-04-09T22:19:28.933Z,11.47
2023-04-09T22:21:56.273Z,10.70
2023-04-09T22:24:26.992Z,11.60
2023-04-09T22:26:54.764Z,11.53
2023-04-09T22:29:22.109Z,11.63
2023-04-09T22:31:49.501Z,10.97
2023-04-09T22:34:21.310Z,11.57
2023-04-09T22:36:49.626Z,11.27
2023-04-09T22:39:17.014Z,11.30
2023-04-09T22:41:44.505Z,10.93
2023-04-09T22:44:13.390Z,11.03
2023-04-09T22:46:41.508Z,10.67
2023-04-09T22:49:09.103Z,10.60
2023-04-09T22:51:40.138Z,10.17
2023-04-09T22:54:10.359Z,9.40
2023-04-09T22:56:37.816Z,10.70
2023-04-09T22:59:06.028Z,11.13
2023-04-09T23:01:33.608Z,10.10
2023-04-09T23:04:01.508Z,10.23
2023-04-09T23:06:28.900Z,10.00
2023-04-09T23:08:58.681Z,11.03
2023-04-09T23:11:26.553Z,10.43
2023-04-09T23:13:54.008Z,10.23
2023-04-09T23:16:22.044Z,10.50
2023-04-09T23:18:49.761Z,10.07
2023-04-09T23:21:17.088Z,10.20
2023-04-09T23:23:44.404Z,10.00
2023-04-09T23:26:13.520Z,10.97
2023-04-09T23:28:40.916Z,10.73
2023-04-09T23:31:08.504Z,10.17
2023-04-09T23:33:35.848Z,11.00
2023-04-09T23:36:03.291Z,10.87
2023-04-09T23:38:30.762Z,9.90
2023-04-09T23:40:58.356Z,10.30
2023-04-09T23:43:27.077Z,9.93
2023-04-09T23:45:55.449Z,9.67
2023-04-09T23:48:22.769Z,10.30
2023-04-09T23:50:50.382Z,10.70
2023-04-09T23:53:18.416Z,10.33
2023-04-09T23:55:47.826Z,9.90
2023-04-09T23:58:15.289Z,9.43
